Contoocook, NH (03229)

9:31 AM EST on February 10, 2016 (GMT -0500)
Rollins Rd | | Change Station
CLOSE
Current Station
Personal Weather Station
Location: Hopkinton, NH
Elevation: 702 ft
Nearby Weather Stations

Elev 702 ft 43.20 °N, 71.65 °W | Updated 6 minutes ago

Snow
Snow
28.4 °F
Feels Like 28 °F
N
0.0
Wind Variable Wind from ENE

Today
High -- | Low -- °F
--% Chance of Precip.
Yesterday
High -- | Low -- °F
Precip. -- in
Pressure 29.60 in
Visibility 1.5 miles
Clouds Mostly Cloudy 3600 ft
Overcast 4800 ft
Windchill 28 °F
Dew Point 19 °F
Humidity 67%
Rainfall 0.00 in
Snow Depth Not available.
6:52 AM 5:10 PM
Waxing Crescent, 5% visible
SPECI KCON 101411Z AUTO 00000KT 1 1/2SM -SN BR BKN036 OVC048 M06/M07 A2960 RMK AO2 P0000 T10561072
Pressure 29.60 in
Visibility 1.5 miles
Clouds Mostly Cloudy 3600 ft
Overcast 4800 ft
Windchill 28 °F
Dew Point 19 °F
Humidity 67%
Rainfall 0.00 in
Snow Depth Not available.
6:52 AM 5:10 PM
Waxing Crescent, 5% visible
SPECI KCON 101411Z AUTO 00000KT 1 1/2SM -SN BR BKN036 OVC048 M06/M07 A2960 RMK AO2 P0000 T10561072

10-Day Weather Forecast

Almanac

Astronomy

Feb. 10, 2016 Rise Set
Actual Time
Civil Twilight
Nautical Twilight
Astronomical Twilight
Moon
Length of Visible Light
Length of Day
Tomorrow will be .
, % of the Moon is Illuminated

Today's Extremes

State Highs State Lows

Community

WunderPhotos

Upload Photos

1,891,855 photos uploaded!

WunderBlog® & News

Nearby

Air Quality

  Air Quality AQ Index Pollutant
Not available.

Snow Depth

Station Depth Elevation

Earthquake Activity

City Distance Mag. Time & Date
Minimum magnitude displayed is 2.5.

Coastal Water Temperatures

Place Temperature

Stations

Nearby Weather Stations

Station Location Temp. Windchill Dew Point Humidity Wind Precip. Elev Updated Type
                   

Watches & Warnings

There are currently no watches in effect.